sensor_id;sensor_type;location;lat;lon;timestamp;P1;durP1;ratioP1;P2;durP2;ratioP2
58360;SDS011;44164;44.954;10.068;2024-01-11T00:01:11;5.82;;;4.63;;
58360;SDS011;44164;44.954;10.068;2024-01-11T00:03:38;6.25;;;4.88;;
58360;SDS011;44164;44.954;10.068;2024-01-11T00:06:04;5.60;;;4.65;;
58360;SDS011;44164;44.954;10.068;2024-01-11T00:08:30;6.35;;;4.43;;
58360;SDS011;44164;44.954;10.068;2024-01-11T00:10:56;5.45;;;4.20;;
58360;SDS011;44164;44.954;10.068;2024-01-11T00:13:22;5.22;;;4.10;;
58360;SDS011;44164;44.954;10.068;2024-01-11T00:15:48;7.90;;;4.60;;
58360;SDS011;44164;44.954;10.068;2024-01-11T00:18:15;6.82;;;4.75;;
58360;SDS011;44164;44.954;10.068;2024-01-11T00:20:41;5.78;;;4.32;;
58360;SDS011;44164;44.954;10.068;2024-01-11T00:23:07;6.82;;;5.07;;
58360;SDS011;44164;44.954;10.068;2024-01-11T00:25:33;5.55;;;4.20;;
58360;SDS011;44164;44.954;10.068;2024-01-11T00:27:59;5.82;;;4.22;;
58360;SDS011;44164;44.954;10.068;2024-01-11T00:30:27;5.90;;;4.50;;
58360;SDS011;44164;44.954;10.068;2024-01-11T00:32:53;6.43;;;4.20;;
58360;SDS011;44164;44.954;10.068;2024-01-11T00:35:19;6.75;;;4.32;;
58360;SDS011;44164;44.954;10.068;2024-01-11T00:37:45;6.22;;;4.43;;
58360;SDS011;44164;44.954;10.068;2024-01-11T00:40:11;7.88;;;4.20;;
58360;SDS011;44164;44.954;10.068;2024-01-11T00:42:38;5.10;;;3.97;;
58360;SDS011;44164;44.954;10.068;2024-01-11T00:45:04;6.40;;;4.50;;
58360;SDS011;44164;44.954;10.068;2024-01-11T00:47:30;5.63;;;4.40;;
58360;SDS011;44164;44.954;10.068;2024-01-11T00:49:56;5.80;;;4.63;;
58360;SDS011;44164;44.954;10.068;2024-01-11T00:52:23;5.20;;;4.20;;
58360;SDS011;44164;44.954;10.068;2024-01-11T00:54:49;5.30;;;3.92;;
58360;SDS011;44164;44.954;10.068;2024-01-11T00:57:15;5.80;;;4.43;;
58360;SDS011;44164;44.954;10.068;2024-01-11T00:59:41;7.70;;;4.45;;
58360;SDS011;44164;44.954;10.068;2024-01-11T01:02:07;4.82;;;4.00;;
58360;SDS011;44164;44.954;10.068;2024-01-11T01:04:36;5.40;;;4.18;;
58360;SDS011;44164;44.954;10.068;2024-01-11T01:07:03;5.95;;;3.95;;
58360;SDS011;44164;44.954;10.068;2024-01-11T01:09:29;5.70;;;3.90;;
58360;SDS011;44164;44.954;10.068;2024-01-11T01:11:56;6.50;;;4.72;;
58360;SDS011;44164;44.954;10.068;2024-01-11T01:14:22;6.15;;;4.32;;
58360;SDS011;44164;44.954;10.068;2024-01-11T01:16:48;6.70;;;4.55;;
58360;SDS011;44164;44.954;10.068;2024-01-11T01:19:15;5.07;;;3.83;;
58360;SDS011;44164;44.954;10.068;2024-01-11T01:21:41;6.18;;;4.47;;
58360;SDS011;44164;44.954;10.068;2024-01-11T01:24:07;5.22;;;4.15;;
58360;SDS011;44164;44.954;10.068;2024-01-11T01:26:33;7.03;;;4.18;;
58360;SDS011;44164;44.954;10.068;2024-01-11T01:28:59;5.68;;;4.53;;
58360;SDS011;44164;44.954;10.068;2024-01-11T01:31:25;5.75;;;4.22;;
58360;SDS011;44164;44.954;10.068;2024-01-11T01:33:51;5.95;;;4.47;;
58360;SDS011;44164;44.954;10.068;2024-01-11T01:36:18;5.65;;;4.63;;
58360;SDS011;44164;44.954;10.068;2024-01-11T01:38:44;7.53;;;4.70;;
58360;SDS011;44164;44.954;10.068;2024-01-11T01:41:11;4.95;;;3.88;;
58360;SDS011;44164;44.954;10.068;2024-01-11T01:43:37;5.82;;;4.15;;
58360;SDS011;44164;44.954;10.068;2024-01-11T01:46:03;5.85;;;4.50;;
58360;SDS011;44164;44.954;10.068;2024-01-11T01:48:31;5.53;;;4.38;;
58360;SDS011;44164;44.954;10.068;2024-01-11T01:50:57;4.93;;;4.20;;
58360;SDS011;44164;44.954;10.068;2024-01-11T01:53:23;5.47;;;4.32;;
58360;SDS011;44164;44.954;10.068;2024-01-11T01:55:50;6.07;;;4.13;;
58360;SDS011;44164;44.954;10.068;2024-01-11T01:58:18;5.80;;;4.07;;
58360;SDS011;44164;44.954;10.068;2024-01-11T02:00:45;5.53;;;3.97;;
58360;SDS011;44164;44.954;10.068;2024-01-11T02:03:11;6.60;;;4.43;;
58360;SDS011;44164;44.954;10.068;2024-01-11T02:05:38;6.10;;;4.70;;
58360;SDS011;44164;44.954;10.068;2024-01-11T02:08:05;5.38;;;4.28;;
58360;SDS011;44164;44.954;10.068;2024-01-11T02:10:35;4.35;;;3.60;;
58360;SDS011;44164;44.954;10.068;2024-01-11T02:13:01;5.47;;;3.90;;
58360;SDS011;44164;44.954;10.068;2024-01-11T02:15:27;5.57;;;4.07;;
58360;SDS011;44164;44.954;10.068;2024-01-11T02:17:54;5.55;;;4.50;;
58360;SDS011;44164;44.954;10.068;2024-01-11T02:20:20;5.70;;;4.30;;
58360;SDS011;44164;44.954;10.068;2024-01-11T02:22:51;5.82;;;4.57;;
58360;SDS011;44164;44.954;10.068;2024-01-11T02:25:19;5.78;;;4.20;;
58360;SDS011;44164;44.954;10.068;2024-01-11T02:27:46;6.53;;;4.75;;
58360;SDS011;44164;44.954;10.068;2024-01-11T02:30:15;5.57;;;4.10;;
58360;SDS011;44164;44.954;10.068;2024-01-11T02:32:48;5.70;;;4.35;;
58360;SDS011;44164;44.954;10.068;2024-01-11T02:35:15;5.60;;;3.63;;
58360;SDS011;44164;44.954;10.068;2024-01-11T02:37:41;6.65;;;4.75;;
58360;SDS011;44164;44.954;10.068;2024-01-11T02:40:09;5.75;;;4.18;;
58360;SDS011;44164;44.954;10.068;2024-01-11T02:42:35;5.57;;;3.95;;
58360;SDS011;44164;44.954;10.068;2024-01-11T02:45:05;4.78;;;3.70;;
58360;SDS011;44164;44.954;10.068;2024-01-11T02:47:31;5.45;;;4.43;;
58360;SDS011;44164;44.954;10.068;2024-01-11T02:49:57;4.45;;;3.42;;
58360;SDS011;44164;44.954;10.068;2024-01-11T02:52:23;7.20;;;5.00;;
58360;SDS011;44164;44.954;10.068;2024-01-11T02:54:50;6.00;;;4.40;;
58360;SDS011;44164;44.954;10.068;2024-01-11T02:57:16;5.50;;;4.25;;
58360;SDS011;44164;44.954;10.068;2024-01-11T02:59:42;6.25;;;4.40;;
58360;SDS011;44164;44.954;10.068;2024-01-11T03:02:09;5.55;;;4.65;;
58360;SDS011;44164;44.954;10.068;2024-01-11T03:04:35;5.10;;;4.07;;
58360;SDS011;44164;44.954;10.068;2024-01-11T03:07:01;6.85;;;4.55;;
58360;SDS011;44164;44.954;10.068;2024-01-11T03:09:27;5.57;;;4.10;;
58360;SDS011;44164;44.954;10.068;2024-01-11T03:11:53;6.25;;;3.85;;
58360;SDS011;44164;44.954;10.068;2024-01-11T03:14:19;4.75;;;3.75;;
58360;SDS011;44164;44.954;10.068;2024-01-11T03:16:46;6.38;;;3.83;;
58360;SDS011;44164;44.954;10.068;2024-01-11T03:19:12;5.80;;;3.90;;
58360;SDS011;44164;44.954;10.068;2024-01-11T03:21:45;5.80;;;4.28;;
58360;SDS011;44164;44.954;10.068;2024-01-11T03:24:12;5.43;;;4.38;;
58360;SDS011;44164;44.954;10.068;2024-01-11T03:26:39;5.10;;;3.88;;
58360;SDS011;44164;44.954;10.068;2024-01-11T03:29:06;5.38;;;3.38;;
58360;SDS011;44164;44.954;10.068;2024-01-11T03:31:32;5.50;;;4.20;;
58360;SDS011;44164;44.954;10.068;2024-01-11T03:33:58;4.22;;;3.42;;
58360;SDS011;44164;44.954;10.068;2024-01-11T03:36:24;5.60;;;4.18;;
58360;SDS011;44164;44.954;10.068;2024-01-11T03:38:50;5.75;;;3.85;;
58360;SDS011;44164;44.954;10.068;2024-01-11T03:41:16;5.28;;;3.90;;
58360;SDS011;44164;44.954;10.068;2024-01-11T03:43:43;5.35;;;3.78;;
58360;SDS011;44164;44.954;10.068;2024-01-11T03:46:09;5.25;;;3.53;;
58360;SDS011;44164;44.954;10.068;2024-01-11T03:48:35;6.45;;;3.58;;
58360;SDS011;44164;44.954;10.068;2024-01-11T03:51:01;5.40;;;3.55;;
58360;SDS011;44164;44.954;10.068;2024-01-11T03:53:28;5.45;;;3.50;;
58360;SDS011;44164;44.954;10.068;2024-01-11T03:55:54;4.97;;;3.65;;
58360;SDS011;44164;44.954;10.068;2024-01-11T03:58:20;5.15;;;3.60;;
58360;SDS011;44164;44.954;10.068;2024-01-11T04:00:46;6.68;;;3.83;;
58360;SDS011;44164;44.954;10.068;2024-01-11T04:03:12;5.55;;;3.78;;
58360;SDS011;44164;44.954;10.068;2024-01-11T04:05:39;5.90;;;3.70;;
58360;SDS011;44164;44.954;10.068;2024-01-11T04:08:05;4.90;;;3.85;;
58360;SDS011;44164;44.954;10.068;2024-01-11T04:10:32;7.55;;;4.20;;
58360;SDS011;44164;44.954;10.068;2024-01-11T04:12:59;4.82;;;3.47;;
58360;SDS011;44164;44.954;10.068;2024-01-11T04:15:25;5.03;;;3.20;;
58360;SDS011;44164;44.954;10.068;2024-01-11T04:17:51;5.07;;;4.07;;
58360;SDS011;44164;44.954;10.068;2024-01-11T04:20:18;4.53;;;3.50;;
58360;SDS011;44164;44.954;10.068;2024-01-11T04:22:44;6.45;;;3.88;;
58360;SDS011;44164;44.954;10.068;2024-01-11T04:25:10;5.30;;;3.65;;
58360;SDS011;44164;44.954;10.068;2024-01-11T04:27:37;4.93;;;3.65;;
58360;SDS011;44164;44.954;10.068;2024-01-11T04:30:03;5.68;;;3.10;;
58360;SDS011;44164;44.954;10.068;2024-01-11T04:32:29;6.13;;;3.33;;
58360;SDS011;44164;44.954;10.068;2024-01-11T04:34:56;5.70;;;3.90;;
58360;SDS011;44164;44.954;10.068;2024-01-11T04:37:22;4.15;;;3.30;;
58360;SDS011;44164;44.954;10.068;2024-01-11T04:39:48;5.25;;;3.60;;
58360;SDS011;44164;44.954;10.068;2024-01-11T04:42:14;4.65;;;3.30;;
58360;SDS011;44164;44.954;10.068;2024-01-11T04:44:40;6.38;;;3.50;;
58360;SDS011;44164;44.954;10.068;2024-01-11T04:47:06;4.82;;;3.25;;
58360;SDS011;44164;44.954;10.068;2024-01-11T04:49:34;7.27;;;3.83;;
58360;SDS011;44164;44.954;10.068;2024-01-11T04:52:00;5.35;;;3.90;;
58360;SDS011;44164;44.954;10.068;2024-01-11T04:54:26;5.50;;;3.95;;
58360;SDS011;44164;44.954;10.068;2024-01-11T04:56:52;4.50;;;3.17;;
58360;SDS011;44164;44.954;10.068;2024-01-11T04:59:18;4.68;;;3.38;;
58360;SDS011;44164;44.954;10.068;2024-01-11T05:01:45;6.70;;;3.60;;
58360;SDS011;44164;44.954;10.068;2024-01-11T05:04:12;5.40;;;3.40;;
58360;SDS011;44164;44.954;10.068;2024-01-11T05:06:38;4.03;;;3.42;;
58360;SDS011;44164;44.954;10.068;2024-01-11T05:09:04;6.75;;;3.72;;
58360;SDS011;44164;44.954;10.068;2024-01-11T05:11:30;4.95;;;3.35;;
58360;SDS011;44164;44.954;10.068;2024-01-11T05:13:56;6.85;;;3.33;;
58360;SDS011;44164;44.954;10.068;2024-01-11T05:16:23;5.90;;;3.50;;
58360;SDS011;44164;44.954;10.068;2024-01-11T05:18:51;7.45;;;3.70;;
58360;SDS011;44164;44.954;10.068;2024-01-11T05:21:18;5.30;;;3.40;;
58360;SDS011;44164;44.954;10.068;2024-01-11T05:23:44;3.83;;;3.10;;
58360;SDS011;44164;44.954;10.068;2024-01-11T05:26:11;6.75;;;3.17;;
58360;SDS011;44164;44.954;10.068;2024-01-11T05:28:38;6.45;;;3.47;;
58360;SDS011;44164;44.954;10.068;2024-01-11T05:31:09;5.10;;;3.22;;
58360;SDS011;44164;44.954;10.068;2024-01-11T05:33:35;3.72;;;3.00;;
58360;SDS011;44164;44.954;10.068;2024-01-11T05:36:02;7.72;;;3.35;;
58360;SDS011;44164;44.954;10.068;2024-01-11T05:38:30;5.30;;;3.47;;
58360;SDS011;44164;44.954;10.068;2024-01-11T05:40:56;5.25;;;3.13;;
58360;SDS011;44164;44.954;10.068;2024-01-11T05:43:22;4.68;;;3.22;;
58360;SDS011;44164;44.954;10.068;2024-01-11T05:45:49;5.20;;;3.40;;
58360;SDS011;44164;44.954;10.068;2024-01-11T05:48:16;6.07;;;3.13;;
58360;SDS011;44164;44.954;10.068;2024-01-11T05:50:43;4.90;;;3.00;;
58360;SDS011;44164;44.954;10.068;2024-01-11T05:53:09;5.88;;;3.20;;
58360;SDS011;44164;44.954;10.068;2024-01-11T05:55:36;5.05;;;3.15;;
58360;SDS011;44164;44.954;10.068;2024-01-11T05:58:03;5.60;;;3.65;;
58360;SDS011;44164;44.954;10.068;2024-01-11T06:00:29;5.47;;;3.83;;
58360;SDS011;44164;44.954;10.068;2024-01-11T06:02:55;10.15;;;3.28;;
58360;SDS011;44164;44.954;10.068;2024-01-11T06:05:22;4.85;;;3.38;;
58360;SDS011;44164;44.954;10.068;2024-01-11T06:07:48;4.70;;;3.08;;
58360;SDS011;44164;44.954;10.068;2024-01-11T06:10:14;4.53;;;3.40;;
58360;SDS011;44164;44.954;10.068;2024-01-11T06:12:41;4.88;;;3.50;;
58360;SDS011;44164;44.954;10.068;2024-01-11T06:15:07;5.47;;;4.00;;
58360;SDS011;44164;44.954;10.068;2024-01-11T06:17:33;5.13;;;2.95;;
58360;SDS011;44164;44.954;10.068;2024-01-11T06:19:59;5.03;;;3.28;;
58360;SDS011;44164;44.954;10.068;2024-01-11T06:22:25;4.28;;;3.20;;
58360;SDS011;44164;44.954;10.068;2024-01-11T06:24:51;6.72;;;3.58;;
58360;SDS011;44164;44.954;10.068;2024-01-11T06:27:18;8.13;;;3.20;;
58360;SDS011;44164;44.954;10.068;2024-01-11T06:29:44;5.13;;;3.72;;
58360;SDS011;44164;44.954;10.068;2024-01-11T06:32:10;7.10;;;3.05;;
58360;SDS011;44164;44.954;10.068;2024-01-11T06:34:36;11.45;;;3.80;;
58360;SDS011;44164;44.954;10.068;2024-01-11T06:37:02;6.88;;;3.30;;
58360;SDS011;44164;44.954;10.068;2024-01-11T06:39:29;5.32;;;3.60;;
58360;SDS011;44164;44.954;10.068;2024-01-11T06:41:57;10.95;;;5.03;;
58360;SDS011;44164;44.954;10.068;2024-01-11T06:44:25;15.00;;;5.63;;
58360;SDS011;44164;44.954;10.068;2024-01-11T06:46:51;9.88;;;4.38;;
58360;SDS011;44164;44.954;10.068;2024-01-11T06:49:17;8.18;;;4.40;;
58360;SDS011;44164;44.954;10.068;2024-01-11T06:51:43;9.38;;;4.47;;
58360;SDS011;44164;44.954;10.068;2024-01-11T06:54:09;12.40;;;5.32;;
58360;SDS011;44164;44.954;10.068;2024-01-11T06:56:35;17.67;;;5.25;;
58360;SDS011;44164;44.954;10.068;2024-01-11T06:59:02;11.60;;;5.40;;
58360;SDS011;44164;44.954;10.068;2024-01-11T07:01:28;12.63;;;4.30;;
58360;SDS011;44164;44.954;10.068;2024-01-11T07:03:54;13.00;;;4.53;;
58360;SDS011;44164;44.954;10.068;2024-01-11T07:06:20;9.45;;;4.50;;
58360;SDS011;44164;44.954;10.068;2024-01-11T07:08:46;8.75;;;4.78;;
58360;SDS011;44164;44.954;10.068;2024-01-11T07:11:12;8.60;;;5.05;;
58360;SDS011;44164;44.954;10.068;2024-01-11T07:13:39;9.32;;;4.28;;
58360;SDS011;44164;44.954;10.068;2024-01-11T07:16:05;8.95;;;4.63;;
58360;SDS011;44164;44.954;10.068;2024-01-11T07:18:31;8.65;;;4.25;;
58360;SDS011;44164;44.954;10.068;2024-01-11T07:20:58;8.27;;;4.10;;
58360;SDS011;44164;44.954;10.068;2024-01-11T07:23:26;6.75;;;4.10;;
58360;SDS011;44164;44.954;10.068;2024-01-11T07:25:52;9.52;;;4.45;;
58360;SDS011;44164;44.954;10.068;2024-01-11T07:28:19;9.25;;;4.30;;
58360;SDS011;44164;44.954;10.068;2024-01-11T07:30:53;10.85;;;4.30;;
58360;SDS011;44164;44.954;10.068;2024-01-11T07:33:20;10.95;;;4.57;;
58360;SDS011;44164;44.954;10.068;2024-01-11T07:35:46;12.82;;;4.55;;
58360;SDS011;44164;44.954;10.068;2024-01-11T07:38:13;8.95;;;4.28;;
58360;SDS011;44164;44.954;10.068;2024-01-11T07:40:39;8.45;;;3.92;;
58360;SDS011;44164;44.954;10.068;2024-01-11T07:43:05;8.40;;;4.25;;
58360;SDS011;44164;44.954;10.068;2024-01-11T07:45:31;6.03;;;3.60;;
58360;SDS011;44164;44.954;10.068;2024-01-11T07:47:58;7.78;;;4.10;;
58360;SDS011;44164;44.954;10.068;2024-01-11T07:50:24;10.52;;;4.75;;
58360;SDS011;44164;44.954;10.068;2024-01-11T07:52:50;12.77;;;4.93;;
58360;SDS011;44164;44.954;10.068;2024-01-11T07:55:16;19.75;;;5.15;;
58360;SDS011;44164;44.954;10.068;2024-01-11T07:57:43;11.25;;;4.60;;
58360;SDS011;44164;44.954;10.068;2024-01-11T08:00:09;12.73;;;5.07;;
58360;SDS011;44164;44.954;10.068;2024-01-11T08:02:38;13.35;;;5.20;;
58360;SDS011;44164;44.954;10.068;2024-01-11T08:05:05;14.15;;;4.60;;
58360;SDS011;44164;44.954;10.068;2024-01-11T08:07:31;9.23;;;4.18;;
58360;SDS011;44164;44.954;10.068;2024-01-11T08:09:57;9.65;;;4.18;;
58360;SDS011;44164;44.954;10.068;2024-01-11T08:12:24;8.43;;;4.60;;
58360;SDS011;44164;44.954;10.068;2024-01-11T08:14:50;14.20;;;4.63;;
58360;SDS011;44164;44.954;10.068;2024-01-11T08:17:16;10.18;;;4.68;;
58360;SDS011;44164;44.954;10.068;2024-01-11T08:19:43;9.80;;;5.15;;
58360;SDS011;44164;44.954;10.068;2024-01-11T08:22:09;10.68;;;4.53;;
58360;SDS011;44164;44.954;10.068;2024-01-11T08:24:36;9.90;;;6.05;;
58360;SDS011;44164;44.954;10.068;2024-01-11T08:27:03;8.98;;;4.93;;
58360;SDS011;44164;44.954;10.068;2024-01-11T08:29:29;7.05;;;4.35;;
58360;SDS011;44164;44.954;10.068;2024-01-11T08:31:56;7.93;;;5.22;;
58360;SDS011;44164;44.954;10.068;2024-01-11T08:34:22;5.90;;;4.03;;
58360;SDS011;44164;44.954;10.068;2024-01-11T08:36:49;8.45;;;5.38;;
58360;SDS011;44164;44.954;10.068;2024-01-11T08:39:15;9.30;;;4.97;;
58360;SDS011;44164;44.954;10.068;2024-01-11T08:41:41;8.38;;;4.75;;
58360;SDS011;44164;44.954;10.068;2024-01-11T08:44:07;10.75;;;5.53;;
58360;SDS011;44164;44.954;10.068;2024-01-11T08:46:33;10.25;;;5.18;;
58360;SDS011;44164;44.954;10.068;2024-01-11T08:49:00;9.25;;;4.82;;
58360;SDS011;44164;44.954;10.068;2024-01-11T08:51:29;6.55;;;4.40;;
58360;SDS011;44164;44.954;10.068;2024-01-11T08:53:55;10.48;;;4.78;;
58360;SDS011;44164;44.954;10.068;2024-01-11T08:56:22;8.00;;;5.30;;
58360;SDS011;44164;44.954;10.068;2024-01-11T08:58:48;7.32;;;4.20;;
58360;SDS011;44164;44.954;10.068;2024-01-11T09:01:14;8.57;;;5.05;;
58360;SDS011;44164;44.954;10.068;2024-01-11T09:03:41;6.45;;;4.50;;
58360;SDS011;44164;44.954;10.068;2024-01-11T09:06:07;8.38;;;5.05;;
58360;SDS011;44164;44.954;10.068;2024-01-11T09:08:33;6.53;;;4.43;;
58360;SDS011;44164;44.954;10.068;2024-01-11T09:11:00;5.88;;;4.00;;
58360;SDS011;44164;44.954;10.068;2024-01-11T09:13:27;6.25;;;4.65;;
58360;SDS011;44164;44.954;10.068;2024-01-11T09:15:54;9.95;;;4.80;;
58360;SDS011;44164;44.954;10.068;2024-01-11T09:18:20;8.43;;;4.75;;
58360;SDS011;44164;44.954;10.068;2024-01-11T09:20:47;10.77;;;5.35;;
58360;SDS011;44164;44.954;10.068;2024-01-11T09:23:14;7.97;;;5.35;;
58360;SDS011;44164;44.954;10.068;2024-01-11T09:25:41;6.78;;;5.30;;
58360;SDS011;44164;44.954;10.068;2024-01-11T09:28:08;7.20;;;5.60;;
58360;SDS011;44164;44.954;10.068;2024-01-11T09:30:34;8.43;;;5.43;;
58360;SDS011;44164;44.954;10.068;2024-01-11T09:33:00;9.25;;;4.97;;
58360;SDS011;44164;44.954;10.068;2024-01-11T09:35:26;7.82;;;5.45;;
58360;SDS011;44164;44.954;10.068;2024-01-11T09:37:53;7.50;;;5.28;;
58360;SDS011;44164;44.954;10.068;2024-01-11T09:40:19;6.57;;;5.07;;
58360;SDS011;44164;44.954;10.068;2024-01-11T09:42:46;7.28;;;5.07;;
58360;SDS011;44164;44.954;10.068;2024-01-11T09:45:12;7.78;;;4.63;;
58360;SDS011;44164;44.954;10.068;2024-01-11T09:47:41;7.95;;;5.03;;
58360;SDS011;44164;44.954;10.068;2024-01-11T09:50:08;7.63;;;4.90;;
58360;SDS011;44164;44.954;10.068;2024-01-11T09:52:36;8.50;;;5.35;;
58360;SDS011;44164;44.954;10.068;2024-01-11T09:55:04;8.27;;;4.97;;
58360;SDS011;44164;44.954;10.068;2024-01-11T09:57:31;6.72;;;4.85;;
58360;SDS011;44164;44.954;10.068;2024-01-11T10:00:02;6.50;;;4.20;;
58360;SDS011;44164;44.954;10.068;2024-01-11T10:02:30;6.45;;;4.47;;
58360;SDS011;44164;44.954;10.068;2024-01-11T10:04:56;6.90;;;5.25;;
58360;SDS011;44164;44.954;10.068;2024-01-11T10:07:23;9.50;;;4.68;;
58360;SDS011;44164;44.954;10.068;2024-01-11T10:09:50;9.07;;;5.25;;
58360;SDS011;44164;44.954;10.068;2024-01-11T10:12:17;8.45;;;5.45;;
58360;SDS011;44164;44.954;10.068;2024-01-11T10:14:46;13.75;;;4.78;;
58360;SDS011;44164;44.954;10.068;2024-01-11T10:17:13;10.38;;;4.90;;
58360;SDS011;44164;44.954;10.068;2024-01-11T10:19:39;6.88;;;4.45;;
58360;SDS011;44164;44.954;10.068;2024-01-11T10:22:05;8.30;;;4.50;;
58360;SDS011;44164;44.954;10.068;2024-01-11T10:24:32;7.35;;;4.60;;
58360;SDS011;44164;44.954;10.068;2024-01-11T10:26:58;6.20;;;4.57;;
58360;SDS011;44164;44.954;10.068;2024-01-11T10:29:33;9.00;;;5.03;;
58360;SDS011;44164;44.954;10.068;2024-01-11T10:31:59;8.18;;;5.20;;
58360;SDS011;44164;44.954;10.068;2024-01-11T10:34:25;7.15;;;4.63;;
58360;SDS011;44164;44.954;10.068;2024-01-11T10:36:51;7.07;;;4.32;;
58360;SDS011;44164;44.954;10.068;2024-01-11T10:39:18;5.82;;;4.53;;
58360;SDS011;44164;44.954;10.068;2024-01-11T10:41:51;6.07;;;4.20;;
58360;SDS011;44164;44.954;10.068;2024-01-11T10:44:20;5.88;;;4.15;;
58360;SDS011;44164;44.954;10.068;2024-01-11T10:46:50;6.32;;;4.35;;
58360;SDS011;44164;44.954;10.068;2024-01-11T10:49:17;5.93;;;4.13;;
58360;SDS011;44164;44.954;10.068;2024-01-11T10:51:56;7.22;;;4.28;;
58360;SDS011;44164;44.954;10.068;2024-01-11T10:54:25;6.47;;;4.57;;
58360;SDS011;44164;44.954;10.068;2024-01-11T10:56:53;6.25;;;4.80;;
58360;SDS011;44164;44.954;10.068;2024-01-11T10:59:20;6.20;;;4.13;;
58360;SDS011;44164;44.954;10.068;2024-01-11T11:01:53;7.72;;;4.63;;
58360;SDS011;44164;44.954;10.068;2024-01-11T11:04:22;5.50;;;4.03;;
58360;SDS011;44164;44.954;10.068;2024-01-11T11:06:49;8.07;;;3.90;;
58360;SDS011;44164;44.954;10.068;2024-01-11T11:09:16;8.07;;;4.63;;
58360;SDS011;44164;44.954;10.068;2024-01-11T11:11:43;7.05;;;4.50;;
58360;SDS011;44164;44.954;10.068;2024-01-11T11:14:12;5.82;;;4.63;;
58360;SDS011;44164;44.954;10.068;2024-01-11T11:16:40;6.47;;;4.30;;
58360;SDS011;44164;44.954;10.068;2024-01-11T11:19:10;6.32;;;4.22;;
58360;SDS011;44164;44.954;10.068;2024-01-11T11:21:44;8.73;;;5.07;;
58360;SDS011;44164;44.954;10.068;2024-01-11T11:24:12;6.22;;;4.13;;
58360;SDS011;44164;44.954;10.068;2024-01-11T11:26:38;9.80;;;4.50;;
58360;SDS011;44164;44.954;10.068;2024-01-11T11:29:04;6.20;;;4.75;;
58360;SDS011;44164;44.954;10.068;2024-01-11T11:31:37;7.43;;;4.32;;
58360;SDS011;44164;44.954;10.068;2024-01-11T11:34:05;5.85;;;4.28;;
58360;SDS011;44164;44.954;10.068;2024-01-11T11:36:32;6.97;;;4.45;;
58360;SDS011;44164;44.954;10.068;2024-01-11T11:38:59;5.38;;;3.40;;
58360;SDS011;44164;44.954;10.068;2024-01-11T11:41:26;6.05;;;3.88;;
58360;SDS011;44164;44.954;10.068;2024-01-11T11:43:53;7.45;;;4.60;;
58360;SDS011;44164;44.954;10.068;2024-01-11T11:46:19;5.45;;;4.00;;
58360;SDS011;44164;44.954;10.068;2024-01-11T11:51:12;6.22;;;3.97;;
58360;SDS011;44164;44.954;10.068;2024-01-11T11:53:40;5.32;;;3.53;;
58360;SDS011;44164;44.954;10.068;2024-01-11T11:56:07;8.05;;;4.22;;
58360;SDS011;44164;44.954;10.068;2024-01-11T11:58:38;6.63;;;4.40;;
58360;SDS011;44164;44.954;10.068;2024-01-11T12:01:08;5.78;;;4.25;;
58360;SDS011;44164;44.954;10.068;2024-01-11T12:03:38;5.45;;;3.90;;
58360;SDS011;44164;44.954;10.068;2024-01-11T12:06:09;4.95;;;3.55;;
58360;SDS011;44164;44.954;10.068;2024-01-11T12:08:36;4.97;;;3.92;;
58360;SDS011;44164;44.954;10.068;2024-01-11T12:11:03;4.85;;;3.63;;
58360;SDS011;44164;44.954;10.068;2024-01-11T12:13:29;5.88;;;4.05;;
58360;SDS011;44164;44.954;10.068;2024-01-11T12:15:59;5.20;;;4.03;;
58360;SDS011;44164;44.954;10.068;2024-01-11T12:18:25;6.35;;;4.25;;
58360;SDS011;44164;44.954;10.068;2024-01-11T12:20:51;4.68;;;3.63;;
58360;SDS011;44164;44.954;10.068;2024-01-11T12:23:20;5.57;;;3.53;;
58360;SDS011;44164;44.954;10.068;2024-01-11T12:25:47;5.78;;;3.80;;
58360;SDS011;44164;44.954;10.068;2024-01-11T12:28:13;5.35;;;4.07;;
58360;SDS011;44164;44.954;10.068;2024-01-11T12:30:39;5.38;;;3.72;;
58360;SDS011;44164;44.954;10.068;2024-01-11T12:33:05;5.10;;;3.53;;
58360;SDS011;44164;44.954;10.068;2024-01-11T12:35:32;4.72;;;3.05;;
58360;SDS011;44164;44.954;10.068;2024-01-11T12:37:59;4.60;;;3.47;;
58360;SDS011;44164;44.954;10.068;2024-01-11T12:40:26;6.63;;;4.60;;
58360;SDS011;44164;44.954;10.068;2024-01-11T12:42:53;7.63;;;3.88;;
58360;SDS011;44164;44.954;10.068;2024-01-11T12:45:20;4.93;;;3.60;;
58360;SDS011;44164;44.954;10.068;2024-01-11T12:47:46;5.28;;;3.67;;
58360;SDS011;44164;44.954;10.068;2024-01-11T12:50:12;4.80;;;3.45;;
58360;SDS011;44164;44.954;10.068;2024-01-11T12:52:38;4.22;;;3.38;;
58360;SDS011;44164;44.954;10.068;2024-01-11T12:55:06;4.38;;;3.17;;
58360;SDS011;44164;44.954;10.068;2024-01-11T12:57:34;4.43;;;3.35;;
58360;SDS011;44164;44.954;10.068;2024-01-11T13:00:10;8.57;;;4.10;;
58360;SDS011;44164;44.954;10.068;2024-01-11T13:02:37;4.57;;;3.58;;
58360;SDS011;44164;44.954;10.068;2024-01-11T13:05:03;5.00;;;3.50;;
58360;SDS011;44164;44.954;10.068;2024-01-11T13:07:33;5.50;;;3.85;;
58360;SDS011;44164;44.954;10.068;2024-01-11T13:09:59;5.30;;;3.65;;
58360;SDS011;44164;44.954;10.068;2024-01-11T13:12:26;7.57;;;4.40;;
58360;SDS011;44164;44.954;10.068;2024-01-11T13:14:52;5.95;;;3.75;;
58360;SDS011;44164;44.954;10.068;2024-01-11T13:17:18;4.63;;;3.58;;
58360;SDS011;44164;44.954;10.068;2024-01-11T13:19:46;5.28;;;3.47;;
58360;SDS011;44164;44.954;10.068;2024-01-11T13:22:12;6.53;;;3.70;;
58360;SDS011;44164;44.954;10.068;2024-01-11T13:24:38;5.03;;;3.20;;
58360;SDS011;44164;44.954;10.068;2024-01-11T13:27:04;6.38;;;3.92;;
58360;SDS011;44164;44.954;10.068;2024-01-11T13:29:31;4.88;;;3.40;;
58360;SDS011;44164;44.954;10.068;2024-01-11T13:31:57;4.78;;;3.40;;
58360;SDS011;44164;44.954;10.068;2024-01-11T13:34:23;4.53;;;3.38;;
58360;SDS011;44164;44.954;10.068;2024-01-11T13:36:49;4.25;;;3.50;;
58360;SDS011;44164;44.954;10.068;2024-01-11T13:39:16;6.10;;;3.63;;
58360;SDS011;44164;44.954;10.068;2024-01-11T13:41:44;4.13;;;3.20;;
58360;SDS011;44164;44.954;10.068;2024-01-11T13:44:10;4.78;;;3.10;;
58360;SDS011;44164;44.954;10.068;2024-01-11T13:46:37;7.15;;;3.55;;
58360;SDS011;44164;44.954;10.068;2024-01-11T13:49:03;7.25;;;3.58;;
58360;SDS011;44164;44.954;10.068;2024-01-11T13:51:30;6.82;;;3.30;;
58360;SDS011;44164;44.954;10.068;2024-01-11T13:53:58;3.97;;;3.15;;
58360;SDS011;44164;44.954;10.068;2024-01-11T13:56:27;4.75;;;3.53;;
58360;SDS011;44164;44.954;10.068;2024-01-11T13:58:53;4.80;;;3.35;;
58360;SDS011;44164;44.954;10.068;2024-01-11T14:01:19;6.22;;;3.63;;
58360;SDS011;44164;44.954;10.068;2024-01-11T14:03:45;4.88;;;3.42;;
58360;SDS011;44164;44.954;10.068;2024-01-11T14:06:11;5.22;;;3.42;;
58360;SDS011;44164;44.954;10.068;2024-01-11T14:08:38;4.80;;;3.42;;
58360;SDS011;44164;44.954;10.068;2024-01-11T14:11:04;4.90;;;3.45;;
58360;SDS011;44164;44.954;10.068;2024-01-11T14:13:31;4.65;;;3.60;;
58360;SDS011;44164;44.954;10.068;2024-01-11T14:15:57;5.43;;;3.20;;
58360;SDS011;44164;44.954;10.068;2024-01-11T14:18:23;7.68;;;3.55;;
58360;SDS011;44164;44.954;10.068;2024-01-11T14:20:49;6.75;;;3.55;;
58360;SDS011;44164;44.954;10.068;2024-01-11T14:23:16;5.70;;;4.05;;
58360;SDS011;44164;44.954;10.068;2024-01-11T14:25:42;4.97;;;3.65;;
58360;SDS011;44164;44.954;10.068;2024-01-11T14:28:08;5.53;;;4.10;;
58360;SDS011;44164;44.954;10.068;2024-01-11T14:30:34;6.35;;;4.05;;
58360;SDS011;44164;44.954;10.068;2024-01-11T14:33:00;5.13;;;4.03;;